<?xml version='1.0' encoding='UTF-8'?>
<gpx xmlns="http://www.topografix.com/GPX/1/1" creator="www.balnam.be" version="1.1" xmlns:xsi="http://www.w3.org/2001/XMLSchema-instance" xsi:schemaLocation="http://www.topografix.com/GPX/1/1 http://www.topografix.com/GPX/1/1/gpx.xsd">
<trk>
<name>lhtht86</name>
<cmt>v</cmt>
<desc>Herstal Sentier n°86 Sentier de la Borne</desc>
<link href="https://chemins.be/herstal/sentier/86"/><trkseg>
<trkpt lat="50.684846" lon="5.627367"><time>2026-05-08T16:26:55Z</time></trkpt>
<trkpt lat="50.684128" lon="5.626594"><time>2026-05-08T16:36:55Z</time></trkpt>
</trkseg></trk>
<trk>
<name>lhtht86</name>
<cmt>d</cmt>
<desc>Herstal Sentier n°86 Sentier de la Borne</desc>
<link href="https://chemins.be/herstal/sentier/86"/><trkseg>
<trkpt lat="50.684128" lon="5.626594"><time>2026-05-08T16:36:55Z</time></trkpt>
<trkpt lat="50.683654" lon="5.626346"><time>2026-05-08T16:46:55Z</time></trkpt>
<trkpt lat="50.683159" lon="5.625728"><time>2026-05-08T16:56:55Z</time></trkpt>
<trkpt lat="50.682523" lon="5.624810"><time>2026-05-08T17:06:55Z</time></trkpt>
<trkpt lat="50.682461" lon="5.623941"><time>2026-05-08T17:16:55Z</time></trkpt>
</trkseg></trk>
<trk>
<name>lhtht86</name>
<cmt>v</cmt>
<desc>Herstal Sentier n°86 Sentier de la Borne</desc>
<link href="https://chemins.be/herstal/sentier/86"/><trkseg>
<trkpt lat="50.682461" lon="5.623941"><time>2026-05-08T17:16:55Z</time></trkpt>
<trkpt lat="50.681730" lon="5.623026"><time>2026-05-08T17:26:55Z</time></trkpt>
<trkpt lat="50.681799" lon="5.622827"><time>2026-05-08T17:36:55Z</time></trkpt>
<trkpt lat="50.680898" lon="5.621631"><time>2026-05-08T17:46:55Z</time></trkpt>
</trkseg></trk>
<trk>
<name>lhtht86</name>
<cmt>r</cmt>
<desc>Herstal Sentier n°86 Sentier de la Borne</desc>
<link href="https://chemins.be/herstal/sentier/86"/><trkseg>
<trkpt lat="50.680898" lon="5.621631"><time>2026-05-08T17:46:55Z</time></trkpt>
<trkpt lat="50.680484" lon="5.622097"><time>2026-05-08T17:56:55Z</time></trkpt>
</trkseg></trk>
<trk>
<name>lhtht86</name>
<cmt>b</cmt>
<desc>Herstal Sentier n°86 Sentier de la Borne</desc>
<link href="https://chemins.be/herstal/sentier/86"/><trkseg>
<trkpt lat="50.680484" lon="5.622097"><time>2026-05-08T17:56:55Z</time></trkpt>
<trkpt lat="50.680347" lon="5.621916"><time>2026-05-08T18:06:55Z</time></trkpt>
<trkpt lat="50.679952" lon="5.621398"><time>2026-05-08T18:16:55Z</time></trkpt>
</trkseg></trk>
<trk>
<name>lhtht86</name>
<cmt>v</cmt>
<desc>Herstal Sentier n°86 Sentier de la Borne</desc>
<link href="https://chemins.be/herstal/sentier/86"/><trkseg>
<trkpt lat="50.679952" lon="5.621398"><time>2026-05-08T18:16:55Z</time></trkpt>
<trkpt lat="50.679564" lon="5.620867"><time>2026-05-08T18:26:55Z</time></trkpt>
<trkpt lat="50.679799" lon="5.620260"><time>2026-05-08T18:36:55Z</time></trkpt>
<trkpt lat="50.679590" lon="5.620026"><time>2026-05-08T18:46:55Z</time></trkpt>
<trkpt lat="50.679109" lon="5.619381"><time>2026-05-08T18:56:55Z</time></trkpt>
<trkpt lat="50.678879" lon="5.619088"><time>2026-05-08T19:06:55Z</time></trkpt>
</trkseg></trk>
<trk>
<name>lhtht86</name>
<cmt>b</cmt>
<desc>Herstal Sentier n°86 Sentier de la Borne</desc>
<link href="https://chemins.be/herstal/sentier/86"/><trkseg>
<trkpt lat="50.678879" lon="5.619088"><time>2026-05-08T19:06:55Z</time></trkpt>
<trkpt lat="50.678649" lon="5.618796"><time>2026-05-08T19:16:55Z</time></trkpt>
</trkseg></trk>
<trk>
<name>lhtht86</name>
<cmt>r</cmt>
<desc>Herstal Sentier n°86 Sentier de la Borne</desc>
<link href="https://chemins.be/herstal/sentier/86"/><trkseg>
<trkpt lat="50.678649" lon="5.618796"><time>2026-05-08T19:16:55Z</time></trkpt>
<trkpt lat="50.678222" lon="5.619788"><time>2026-05-08T19:26:55Z</time></trkpt>
<trkpt lat="50.676895" lon="5.617842"><time>2026-05-08T19:36:55Z</time></trkpt>
<trkpt lat="50.675596" lon="5.615700"><time>2026-05-08T19:46:55Z</time></trkpt>
<trkpt lat="50.675017" lon="5.614284"><time>2026-05-08T19:56:55Z</time></trkpt>
<trkpt lat="50.674809" lon="5.614434"><time>2026-05-08T20:06:55Z</time></trkpt>
</trkseg></trk>
<trk>
<name>lhtht86</name>
<cmt>v</cmt>
<desc>Herstal Sentier n°86 Sentier de la Borne</desc>
<link href="https://chemins.be/herstal/sentier/86"/><trkseg>
<trkpt lat="50.674809" lon="5.614434"><time>2026-05-08T20:06:55Z</time></trkpt>
<trkpt lat="50.673766" lon="5.611345"><time>2026-05-08T20:16:55Z</time></trkpt>
<trkpt lat="50.673690" lon="5.610641"><time>2026-05-08T20:26:55Z</time></trkpt>
<trkpt lat="50.673521" lon="5.610396"><time>2026-05-08T20:36:55Z</time></trkpt>
<trkpt lat="50.673614" lon="5.609856"><time>2026-05-08T20:46:55Z</time></trkpt>
</trkseg></trk>
<trk>
<name>lhtht86</name>
<cmt>r</cmt>
<desc>Herstal Sentier n°86 Sentier de la Borne</desc>
<link href="https://chemins.be/herstal/sentier/86"/><trkseg>
<trkpt lat="50.673614" lon="5.609856"><time>2026-05-08T20:46:55Z</time></trkpt>
<trkpt lat="50.673631" lon="5.608672"><time>2026-05-08T20:56:55Z</time></trkpt>
</trkseg></trk>
<trk>
<name>lhtht86</name>
<cmt>s</cmt>
<desc>Herstal Sentier n°86 Sentier de la Borne</desc>
<link href="https://chemins.be/herstal/sentier/86"/><trkseg>
<trkpt lat="50.673631" lon="5.608672"><time>2026-05-08T20:56:55Z</time></trkpt>
<trkpt lat="50.673640" lon="5.608467"><time>2026-05-08T21:06:55Z</time></trkpt>
</trkseg></trk>
<trk>
<name>lhtht86</name>
<cmt>r</cmt>
<desc>Herstal Sentier n°86 Sentier de la Borne</desc>
<link href="https://chemins.be/herstal/sentier/86"/><trkseg>
<trkpt lat="50.673640" lon="5.608467"><time>2026-05-08T21:06:55Z</time></trkpt>
<trkpt lat="50.673770" lon="5.607346"><time>2026-05-08T21:16:55Z</time></trkpt>
<trkpt lat="50.673709" lon="5.606311"><time>2026-05-08T21:26:55Z</time></trkpt>
</trkseg></trk>
<trk>
<name>lhtht86</name>
<cmt>v</cmt>
<desc>Herstal Sentier n°86 Sentier de la Borne</desc>
<link href="https://chemins.be/herstal/sentier/86"/><trkseg>
<trkpt lat="50.673709" lon="5.606311"><time>2026-05-08T21:26:55Z</time></trkpt>
<trkpt lat="50.673214" lon="5.604657"><time>2026-05-08T21:36:55Z</time></trkpt>
<trkpt lat="50.673259" lon="5.604347"><time>2026-05-08T21:46:55Z</time></trkpt>
<trkpt lat="50.673213" lon="5.604141"><time>2026-05-08T21:56:55Z</time></trkpt>
<trkpt lat="50.673081" lon="5.603550"><time>2026-05-08T22:06:55Z</time></trkpt>
<trkpt lat="50.672916" lon="5.603065"><time>2026-05-08T22:16:55Z</time></trkpt>
</trkseg>
</trk>
</gpx>